Time;durP1;ratioP1;P1;durP2;ratioP2;P2;SDS_P1;SDS_P2;PMS_P1;PMS_P2;Temp;Humidity;BMP_temperature;BMP_pressure;BME280_temperature;BME280_humidity;BME280_pressure;Samples;Min_cycle;Max_cycle;Signal;HPM_P1;HPM_P2
2023/02/07 00:02:20;;;;;;;4.30;3.97;;;2.20;90.70;;;;;;5017621;28;20201;-86
2023/02/07 00:04:46;;;;;;;5.27;4.77;;;2.10;90.60;;;;;;5015870;28;20181;-86
2023/02/07 00:07:11;;;;;;;4.30;3.90;;;2.20;90.50;;;;;;5014146;28;20185;-86
2023/02/07 00:09:37;;;;;;;5.13;4.20;;;2.20;90.00;;;;;;5013410;28;20209;-86
2023/02/07 00:12:04;;;;;;;4.93;4.53;;;2.10;90.40;;;;;;5012567;28;20220;-87
2023/02/07 00:14:29;;;;;;;5.40;4.00;;;2.00;90.70;;;;;;5013812;28;20276;-86
2023/02/07 00:16:55;;;;;;;4.60;4.20;;;2.00;92.40;;;;;;5031941;28;20462;-86
2023/02/07 00:19:21;;;;;;;5.43;4.80;;;2.10;93.10;;;;;;5012622;28;20280;-87
2023/02/07 00:21:46;;;;;;;4.97;4.40;;;2.10;91.70;;;;;;5028962;28;20216;-87
2023/02/07 00:24:12;;;;;;;5.57;4.60;;;2.20;92.10;;;;;;5038591;28;20177;-87
2023/02/07 00:26:38;;;;;;;4.67;4.20;;;2.10;91.30;;;;;;5038347;28;20185;-87
2023/02/07 00:29:04;;;;;;;5.17;4.67;;;2.20;91.20;;;;;;5040415;28;20586;-86
2023/02/07 00:31:31;;;;;;;5.07;4.67;;;2.10;90.70;;;;;;5037035;28;20299;-86
2023/02/07 00:34:01;;;;;;;5.37;4.67;;;2.10;91.10;;;;;;5035335;28;20216;-86
2023/02/07 00:36:29;;;;;;;5.13;4.13;;;1.90;92.30;;;;;;5034311;28;20193;-84
2023/02/07 00:38:57;;;;;;;5.03;4.53;;;1.90;93.00;;;;;;5037240;28;20635;-84
2023/02/07 00:41:22;;;;;;;5.50;4.90;;;1.90;93.50;;;;;;5034908;28;20274;-85
2023/02/07 00:43:48;;;;;;;5.90;5.27;;;1.90;94.30;;;;;;5027617;28;20177;-85
2023/02/07 00:46:15;;;;;;;6.17;4.87;;;1.90;92.80;;;;;;5033767;28;20196;-85
2023/02/07 00:48:40;;;;;;;5.70;4.97;;;1.80;93.40;;;;;;5035241;28;20197;-86
2023/02/07 00:51:07;;;;;;;5.87;5.20;;;1.80;94.70;;;;;;5035032;28;20200;-85
2023/02/07 00:53:33;;;;;;;5.73;5.13;;;1.70;94.10;;;;;;5035816;28;20189;-86
2023/02/07 00:55:59;;;;;;;5.30;4.80;;;1.70;93.60;;;;;;5030290;28;20178;-86
2023/02/07 00:58:24;;;;;;;5.60;4.77;;;1.70;94.30;;;;;;5014439;28;20189;-86
2023/02/07 01:00:50;;;;;;;5.20;4.70;;;1.70;94.70;;;;;;5014297;28;20672;-86
2023/02/07 01:03:16;;;;;;;6.37;5.13;;;1.80;95.30;;;;;;5012001;28;20229;-87
2023/02/07 01:05:42;;;;;;;5.67;5.10;;;1.80;93.40;;;;;;5022110;28;20288;-86
2023/02/07 01:08:09;;;;;;;5.17;4.77;;;1.70;92.90;;;;;;5031688;28;20232;-86
2023/02/07 01:10:37;;;;;;;5.80;5.20;;;1.70;92.80;;;;;;5032550;28;20229;-86
2023/02/07 01:13:03;;;;;;;5.77;5.17;;;1.60;93.50;;;;;;5031254;28;20181;-86
2023/02/07 01:15:28;;;;;;;5.90;5.40;;;1.60;93.70;;;;;;5031568;28;20195;-86
2023/02/07 01:17:54;;;;;;;4.83;4.43;;;1.60;95.50;;;;;;5025477;28;20636;-86
2023/02/07 01:20:20;;;;;;;6.27;5.57;;;1.70;92.70;;;;;;5014813;28;20271;-86
2023/02/07 01:22:46;;;;;;;6.20;5.20;;;1.70;91.20;;;;;;5014164;28;20264;-86
2023/02/07 01:25:11;;;;;;;6.07;5.47;;;1.60;90.30;;;;;;5014383;28;20624;-86
2023/02/07 01:27:37;;;;;;;5.43;4.93;;;1.60;91.30;;;;;;5022835;28;20189;-86
2023/02/07 01:30:04;;;;;;;5.77;5.00;;;1.60;89.70;;;;;;5034677;28;20205;-87
2023/02/07 01:32:32;;;;;;;6.07;5.30;;;1.50;89.10;;;;;;5034909;28;20208;-86
2023/02/07 01:34:57;;;;;;;5.30;4.77;;;1.40;87.70;;;;;;5034651;28;20219;-86
2023/02/07 01:37:23;;;;;;;6.40;5.50;;;1.50;86.60;;;;;;5032923;28;20569;-86
2023/02/07 01:39:48;;;;;;;6.53;5.43;;;1.40;86.20;;;;;;5030596;28;20181;-87
2023/02/07 01:42:15;;;;;;;6.17;5.57;;;1.30;86.70;;;;;;5034455;28;20200;-86
2023/02/07 01:44:41;;;;;;;8.10;5.73;;;1.30;87.20;;;;;;5034519;28;20616;-86
2023/02/07 01:47:10;;;;;;;6.23;5.60;;;1.20;83.20;;;;;;5034899;28;20192;-86
2023/02/07 01:49:36;;;;;;;6.53;5.87;;;1.20;82.10;;;;;;5034790;28;20259;-86
2023/02/07 01:52:15;;;;;;;7.03;5.40;;;1.20;82.10;;;;;;5034386;28;20201;-88
2023/02/07 01:54:46;;;;;;;6.60;6.00;;;1.20;81.00;;;;;;5034464;28;20188;-86
2023/02/07 01:57:16;;;;;;;7.03;5.70;;;1.20;81.20;;;;;;5027399;28;20173;-87
2023/02/07 01:59:43;;;;;;;7.13;6.17;;;1.20;79.10;;;;;;5032606;28;20185;-85
2023/02/07 02:02:11;;;;;;;6.83;6.13;;;1.20;78.30;;;;;;5031618;28;20201;-86
2023/02/07 02:04:38;;;;;;;6.07;5.47;;;1.20;78.20;;;;;;5030939;28;20245;-86
2023/02/07 02:07:06;;;;;;;6.53;5.50;;;1.10;79.90;;;;;;5016727;28;20219;-85
2023/02/07 02:09:32;;;;;;;8.47;6.47;;;1.10;78.50;;;;;;5031436;28;20343;-87
2023/02/07 02:12:07;;;;;;;7.93;6.17;;;1.00;78.60;;;;;;5031262;28;20216;-87
2023/02/07 02:14:44;;;;;;;8.27;6.43;;;1.00;77.40;;;;;;5033010;28;20180;-86
2023/02/07 02:17:24;;;;;;;7.17;6.27;;;1.00;76.80;;;;;;5030294;28;20200;-87
2023/02/07 02:20:34;;;;;;;6.93;6.23;;;1.00;77.40;;;;;;5012108;28;20177;-87
2023/02/07 02:23:22;;;;;;;7.13;6.40;;;0.90;78.00;;;;;;5009420;28;20217;-87
2023/02/07 02:25:56;;;;;;;6.50;5.90;;;0.90;78.00;;;;;;5012621;28;20675;-87
2023/02/07 02:28:25;;;;;;;7.83;6.57;;;0.80;79.60;;;;;;5032157;28;20602;-87
2023/02/07 02:31:16;;;;;;;8.60;7.17;;;0.80;78.60;;;;;;5032206;28;20201;-87
2023/02/07 02:34:07;;;;;;;7.80;6.43;;;0.80;78.20;;;;;;5022245;28;20205;-87
2023/02/07 02:36:32;;;;;;;9.27;6.80;;;0.80;78.00;;;;;;5030873;28;20181;-86
2023/02/07 02:39:17;;;;;;;10.83;7.17;;;0.70;78.60;;;;;;5032303;28;20192;-87
2023/02/07 02:42:06;;;;;;;7.83;6.77;;;0.80;78.40;;;;;;5032497;28;20211;-86
2023/02/07 02:44:50;;;;;;;10.13;7.13;;;0.80;79.20;;;;;;5031771;28;20288;-86
2023/02/07 02:47:17;;;;;;;8.27;6.87;;;0.80;80.20;;;;;;5032826;28;20549;-87
2023/02/07 02:49:43;;;;;;;9.17;7.53;;;0.70;78.90;;;;;;5035729;28;20232;-87
2023/02/07 02:52:09;;;;;;;9.37;7.67;;;0.80;79.90;;;;;;5032264;28;20191;-87
2023/02/07 02:54:37;;;;;;;8.63;6.90;;;0.70;79.20;;;;;;5030631;28;20248;-87
2023/02/07 02:57:37;;;;;;;7.77;6.80;;;0.60;79.50;;;;;;5026690;28;20185;-89
2023/02/07 03:00:35;;;;;;;7.70;6.80;;;0.60;80.10;;;;;;5029924;28;20284;-87
2023/02/07 03:03:14;;;;;;;10.40;6.70;;;0.60;81.50;;;;;;5014199;28;20228;-89
2023/02/07 03:06:05;;;;;;;9.87;7.10;;;0.60;81.90;;;;;;5023057;28;20182;-87
2023/02/07 03:08:45;;;;;;;6.93;6.23;;;0.60;83.00;;;;;;5010537;28;20184;-87
2023/02/07 03:11:21;;;;;;;8.50;6.80;;;0.60;82.60;;;;;;5010874;28;20204;-87
2023/02/07 03:14:02;;;;;;;7.33;6.63;;;0.60;83.10;;;;;;5011461;28;20204;-87
2023/02/07 03:16:28;;;;;;;9.80;6.83;;;0.50;83.20;;;;;;5014844;28;20666;-87
2023/02/07 03:18:53;;;;;;;9.93;7.63;;;0.60;82.10;;;;;;5014455;28;20181;-85
2023/02/07 03:21:48;;;;;;;10.60;7.50;;;0.60;82.50;;;;;;5016082;28;20237;-87
2023/02/07 03:24:20;;;;;;;9.37;7.97;;;0.50;82.40;;;;;;4996716;28;20559;-87
2023/02/07 03:26:49;;;;;;;8.87;6.87;;;0.40;82.60;;;;;;5017086;28;20643;-87
2023/02/07 03:29:16;;;;;;;8.33;7.33;;;0.40;83.60;;;;;;5030200;28;20220;-87
2023/02/07 03:31:47;;;;;;;7.47;6.67;;;0.50;86.50;;;;;;5027430;28;20232;-87
2023/02/07 03:34:17;;;;;;;7.80;7.00;;;0.60;82.00;;;;;;5035702;28;20624;-87
2023/02/07 03:37:18;;;;;;;10.77;7.93;;;0.50;81.00;;;;;;5034289;28;20569;-87
2023/02/07 03:39:44;;;;;;;11.47;7.33;;;0.40;81.10;;;;;;5025551;28;20203;-87
2023/02/07 03:42:29;;;;;;;10.80;7.33;;;0.40;80.40;;;;;;5035479;28;20192;-86
2023/02/07 03:44:57;;;;;;;9.80;8.20;;;0.40;81.10;;;;;;5034285;28;20173;-87
2023/02/07 03:47:24;;;;;;;10.00;7.80;;;0.40;82.10;;;;;;5034148;28;20659;-87
2023/02/07 03:49:50;;;;;;;12.10;8.67;;;0.40;80.70;;;;;;5034924;28;20212;-86
2023/02/07 03:52:16;;;;;;;9.30;8.33;;;0.30;80.30;;;;;;5033430;28;20189;-87
2023/02/07 03:54:41;;;;;;;9.23;8.33;;;0.30;82.00;;;;;;5033391;28;20200;-87
2023/02/07 03:57:07;;;;;;;10.87;8.73;;;0.30;80.60;;;;;;5021058;28;20644;-87
2023/02/07 03:59:33;;;;;;;14.83;9.43;;;0.30;80.30;;;;;;5026683;28;20239;-87
2023/02/07 04:01:58;;;;;;;9.60;8.60;;;0.30;79.70;;;;;;5030475;28;20219;-87
2023/02/07 04:04:24;;;;;;;10.97;8.87;;;0.30;79.80;;;;;;5039730;28;20185;-87
2023/02/07 04:06:49;;;;;;;10.43;8.40;;;0.30;79.20;;;;;;5035389;28;20252;-88
2023/02/07 04:09:15;;;;;;;11.07;8.90;;;0.30;79.10;;;;;;5046525;28;20227;-90
2023/02/07 04:11:41;;;;;;;10.07;9.03;;;0.30;79.30;;;;;;5053078;28;20228;-86
2023/02/07 04:14:06;;;;;;;10.27;8.83;;;0.20;79.10;;;;;;5039572;28;20204;-87
2023/02/07 04:16:32;;;;;;;10.50;9.07;;;0.20;78.90;;;;;;5033288;28;20677;-87
2023/02/07 04:18:57;;;;;;;11.13;10.03;;;0.20;79.30;;;;;;5026179;28;20667;-87
2023/02/07 04:21:24;;;;;;;10.50;9.40;;;0.10;78.80;;;;;;5034331;28;20205;-87
2023/02/07 04:23:49;;;;;;;10.93;9.33;;;0.10;81.70;;;;;;5034684;28;20235;-86
2023/02/07 04:26:15;;;;;;;10.80;9.63;;;0.10;79.00;;;;;;5032382;28;20201;-87
2023/02/07 04:28:41;;;;;;;12.57;10.17;;;0.20;81.50;;;;;;5025980;28;20216;-86
2023/02/07 04:31:06;;;;;;;12.73;10.20;;;0.20;79.00;;;;;;5034015;28;20227;-87
2023/02/07 04:33:32;;;;;;;10.73;9.63;;;0.10;79.60;;;;;;5034235;28;20260;-87
2023/02/07 04:36:00;;;;;;;11.60;9.97;;;0.10;79.00;;;;;;5014252;28;20203;-88
2023/02/07 04:38:27;;;;;;;11.27;9.87;;;0.00;80.50;;;;;;5016385;28;20177;-87
2023/02/07 04:40:56;;;;;;;12.27;10.87;;;0.10;81.20;;;;;;5034187;28;20290;-87
2023/02/07 04:43:22;;;;;;;12.47;10.40;;;0.00;79.40;;;;;;5032884;28;20176;-87
2023/02/07 04:45:47;;;;;;;12.07;10.17;;;-0.10;79.80;;;;;;5033558;28;20255;-87
2023/02/07 04:48:13;;;;;;;12.17;9.97;;;-0.10;80.50;;;;;;5036503;28;20182;-87
2023/02/07 04:50:39;;;;;;;11.83;10.63;;;-0.10;80.20;;;;;;5033419;28;20296;-87
2023/02/07 04:53:04;;;;;;;12.03;10.50;;;-0.10;81.10;;;;;;5035963;28;20188;-88
2023/02/07 04:55:30;;;;;;;11.70;10.20;;;-0.10;81.40;;;;;;5053056;28;20203;-89
2023/02/07 04:57:56;;;;;;;12.97;10.67;;;-0.10;80.80;;;;;;5035310;28;20189;-89
2023/02/07 05:00:22;;;;;;;12.60;10.13;;;-0.10;80.70;;;;;;5051262;28;20213;-88
2023/02/07 05:02:47;;;;;;;13.77;11.37;;;-0.10;81.50;;;;;;5055492;28;20181;-89
2023/02/07 05:05:13;;;;;;;14.13;11.90;;;0.00;83.40;;;;;;5045913;28;20546;-88
2023/02/07 05:07:38;;;;;;;13.47;11.13;;;0.00;80.00;;;;;;5032613;28;20642;-88
2023/02/07 05:10:04;;;;;;;13.90;11.57;;;0.00;80.30;;;;;;5032326;28;20709;-88
2023/02/07 05:12:30;;;;;;;14.53;11.97;;;0.00;81.40;;;;;;5045290;28;20264;-88
2023/02/07 05:14:56;;;;;;;17.57;14.17;;;0.00;79.20;;;;;;5054022;28;20172;-88
2023/02/07 05:17:21;;;;;;;17.90;15.07;;;0.00;80.30;;;;;;5040265;28;20174;-86
2023/02/07 05:19:47;;;;;;;14.10;12.70;;;-0.10;81.00;;;;;;5023153;28;20686;-87
2023/02/07 05:22:13;;;;;;;12.43;11.13;;;0.00;83.20;;;;;;5026337;28;20671;-85
2023/02/07 05:24:38;;;;;;;12.33;10.83;;;0.00;80.80;;;;;;5022881;28;20580;-85
2023/02/07 05:27:04;;;;;;;12.73;10.93;;;0.10;83.40;;;;;;5019875;28;20207;-85
2023/02/07 05:29:29;;;;;;;12.73;11.40;;;-0.10;80.20;;;;;;5038780;28;20287;-84
2023/02/07 05:34:39;;;;;;;12.77;11.03;;;-0.20;81.50;;;;;;5035349;28;20168;-86
2023/02/07 05:37:05;;;;;;;15.90;12.27;;;-0.20;82.60;;;;;;5034412;28;20177;-85
2023/02/07 05:39:30;;;;;;;12.80;11.50;;;-0.20;81.70;;;;;;5032028;28;20191;-86
2023/02/07 05:41:56;;;;;;;13.67;11.60;;;-0.20;81.30;;;;;;5033662;28;20276;-87
2023/02/07 05:44:22;;;;;;;16.33;12.40;;;-0.20;81.50;;;;;;5033852;28;20237;-86
2023/02/07 05:46:47;;;;;;;15.07;12.20;;;-0.20;80.80;;;;;;5033022;28;20542;-86
2023/02/07 05:49:13;;;;;;;13.30;11.90;;;-0.30;81.10;;;;;;5032532;28;20205;-88
2023/02/07 05:51:39;;;;;;;21.07;12.53;;;-0.30;81.80;;;;;;5032649;28;20223;-86
2023/02/07 05:54:04;;;;;;;14.93;11.80;;;-0.20;81.90;;;;;;5031710;28;20543;-86
2023/02/07 05:56:30;;;;;;;14.83;11.67;;;-0.20;80.60;;;;;;5024223;28;20235;-86
2023/02/07 05:58:56;;;;;;;12.97;11.60;;;-0.20;82.80;;;;;;5031488;28;20188;-85
2023/02/07 06:01:21;;;;;;;17.00;11.07;;;-0.20;80.60;;;;;;5033253;28;20284;-85
2023/02/07 06:03:47;;;;;;;13.50;12.10;;;-0.20;81.00;;;;;;5033399;28;20210;-85
2023/02/07 06:06:12;;;;;;;13.77;12.23;;;-0.20;81.60;;;;;;5018010;28;20189;-85
2023/02/07 06:08:38;;;;;;;13.07;11.63;;;-0.20;81.40;;;;;;5029331;28;20224;-85
2023/02/07 06:11:04;;;;;;;14.77;11.73;;;-0.30;82.20;;;;;;5033607;28;20290;-85
2023/02/07 06:13:29;;;;;;;13.87;11.83;;;-0.30;80.60;;;;;;5034341;28;20268;-85
2023/02/07 06:15:55;;;;;;;15.87;11.47;;;-0.30;81.40;;;;;;5033353;28;20169;-85
2023/02/07 06:18:20;;;;;;;15.27;11.93;;;-0.30;81.20;;;;;;5027767;28;20848;-84
2023/02/07 06:20:49;;;;;;;15.13;12.40;;;-0.40;80.90;;;;;;5024955;28;20228;-85
2023/02/07 06:23:15;;;;;;;15.03;11.73;;;-0.40;81.70;;;;;;5033426;28;20252;-85
2023/02/07 06:25:40;;;;;;;13.00;11.53;;;-0.40;82.30;;;;;;5032327;28;20177;-86
2023/02/07 06:28:06;;;;;;;13.10;11.73;;;-0.40;81.20;;;;;;5033376;28;20204;-85
2023/02/07 06:30:31;;;;;;;12.70;11.40;;;-0.50;81.20;;;;;;5033278;28;20748;-85
2023/02/07 06:32:57;;;;;;;13.30;11.70;;;-0.50;82.30;;;;;;5033214;28;20188;-86
2023/02/07 06:35:23;;;;;;;13.03;11.63;;;-0.60;81.80;;;;;;5032028;28;20188;-86
2023/02/07 06:37:48;;;;;;;14.67;12.37;;;-0.60;82.20;;;;;;5032367;28;20204;-85
2023/02/07 06:40:14;;;;;;;12.97;11.57;;;-0.70;82.30;;;;;;5032258;28;20196;-85
2023/02/07 06:42:39;;;;;;;11.87;10.63;;;-0.60;82.90;;;;;;5033257;28;20187;-86
2023/02/07 06:45:05;;;;;;;12.40;10.80;;;-0.70;83.40;;;;;;5031627;28;20181;-87
2023/02/07 06:47:31;;;;;;;13.67;11.70;;;-0.60;83.20;;;;;;5030259;28;20177;-86
2023/02/07 06:49:56;;;;;;;12.03;10.30;;;-0.50;83.70;;;;;;5030993;28;20208;-86
2023/02/07 06:52:22;;;;;;;13.53;11.40;;;-0.50;85.10;;;;;;5031007;28;20575;-85
2023/02/07 06:54:47;;;;;;;13.37;11.47;;;-0.60;84.50;;;;;;5031608;28;20637;-87
2023/02/07 06:57:13;;;;;;;12.90;11.50;;;-0.70;85.30;;;;;;5021217;28;20272;-86
2023/02/07 06:59:39;;;;;;;14.63;11.30;;;-0.80;87.00;;;;;;5014491;28;20174;-88
2023/02/07 07:02:04;;;;;;;18.10;12.67;;;-0.90;88.50;;;;;;5022629;28;20224;-86
2023/02/07 07:04:30;;;;;;;16.30;12.33;;;-1.00;88.50;;;;;;5032357;28;20177;-87
2023/02/07 07:06:56;;;;;;;14.37;12.87;;;-1.00;89.40;;;;;;5025538;28;20235;-89
2023/02/07 07:09:21;;;;;;;18.60;14.97;;;-1.10;90.30;;;;;;5026909;28;20212;-87
2023/02/07 07:11:47;;;;;;;20.87;15.93;;;-1.10;90.30;;;;;;5013917;28;20212;-87
2023/02/07 07:14:13;;;;;;;15.63;12.80;;;-1.00;90.50;;;;;;5019616;28;20193;-87
2023/02/07 07:16:39;;;;;;;21.93;17.67;;;-1.10;90.20;;;;;;5014674;28;20224;-86
2023/02/07 07:19:05;;;;;;;22.13;16.53;;;-1.10;90.10;;;;;;5030327;28;20203;-88
2023/02/07 07:21:31;;;;;;;17.20;12.83;;;-1.00;89.60;;;;;;5033148;28;20288;-88
2023/02/07 07:23:57;;;;;;;16.00;13.20;;;-1.10;89.40;;;;;;5037904;28;20180;-89
2023/02/07 07:26:22;;;;;;;16.03;12.00;;;-1.20;90.60;;;;;;5033975;28;20185;-86
2023/02/07 07:28:48;;;;;;;15.33;12.93;;;-1.10;90.30;;;;;;5031552;28;20295;-87
2023/02/07 07:31:14;;;;;;;16.57;12.23;;;-1.00;89.70;;;;;;5029531;28;20215;-87
2023/02/07 07:33:39;;;;;;;16.17;12.97;;;-1.00;89.60;;;;;;5031194;28;20651;-87
2023/02/07 07:36:05;;;;;;;15.07;12.60;;;-1.00;89.40;;;;;;5029403;28;20477;-87
2023/02/07 07:38:31;;;;;;;12.97;11.43;;;-1.00;88.20;;;;;;5028770;28;20260;-88
2023/02/07 07:40:58;;;;;;;13.37;11.63;;;-0.90;88.60;;;;;;5030145;28;20211;-88
2023/02/07 07:43:24;;;;;;;13.83;11.97;;;-0.90;87.30;;;;;;5029792;28;20169;-88
2023/02/07 07:45:52;;;;;;;15.57;12.70;;;-0.90;86.80;;;;;;5028584;28;20311;-88
2023/02/07 07:48:18;;;;;;;13.33;11.67;;;-0.90;86.00;;;;;;5030179;28;20169;-87
2023/02/07 07:50:44;;;;;;;15.17;12.30;;;-0.90;86.70;;;;;;5030892;28;20208;-89
2023/02/07 07:53:10;;;;;;;15.77;12.50;;;-0.90;86.30;;;;;;5021964;28;20301;-89
2023/02/07 07:55:37;;;;;;;14.03;12.33;;;-0.80;84.80;;;;;;5020992;28;20679;-87
2023/02/07 07:58:02;;;;;;;15.30;12.13;;;-0.80;85.70;;;;;;5011733;28;20194;-87
2023/02/07 08:00:28;;;;;;;15.60;13.27;;;-0.70;84.90;;;;;;5021327;28;20212;-85
2023/02/07 08:02:54;;;;;;;14.80;12.63;;;-0.70;84.40;;;;;;5015915;28;20208;-88
2023/02/07 08:05:19;;;;;;;13.53;11.87;;;-0.70;85.00;;;;;;5014121;28;20342;-86
2023/02/07 08:07:45;;;;;;;13.70;11.57;;;-0.60;85.00;;;;;;5014504;28;20197;-87
2023/02/07 08:10:11;;;;;;;13.60;11.53;;;-0.70;83.30;;;;;;5018091;28;20225;-88
2023/02/07 08:12:36;;;;;;;16.33;12.50;;;-0.60;84.20;;;;;;5015907;28;20196;-84
2023/02/07 08:15:02;;;;;;;15.30;12.53;;;-0.60;81.90;;;;;;5027444;28;20256;-90
2023/02/07 08:17:28;;;;;;;13.33;11.93;;;-0.60;82.70;;;;;;5032422;28;20177;-87
2023/02/07 08:19:53;;;;;;;15.07;12.07;;;-0.60;83.10;;;;;;5034450;28;20180;-87
2023/02/07 08:22:19;;;;;;;15.23;12.73;;;-0.60;83.20;;;;;;5034691;28;20571;-88
2023/02/07 08:24:45;;;;;;;17.13;12.10;;;-0.60;82.10;;;;;;5016477;28;20208;-87
2023/02/07 08:27:10;;;;;;;13.63;12.27;;;-0.60;82.10;;;;;;5018998;28;20261;-86
2023/02/07 08:29:36;;;;;;;15.27;12.50;;;-0.50;82.00;;;;;;5019404;28;20646;-85
2023/02/07 08:32:02;;;;;;;18.97;13.77;;;-0.50;81.90;;;;;;5016167;28;20215;-87
2023/02/07 08:34:30;;;;;;;13.97;12.40;;;-0.40;81.50;;;;;;5017230;28;20182;-82
2023/02/07 08:36:56;;;;;;;13.90;12.13;;;-0.40;81.10;;;;;;5019013;28;20241;-86
2023/02/07 08:39:22;;;;;;;12.60;11.00;;;-0.40;79.90;;;;;;5022145;28;20276;-84
2023/02/07 08:41:47;;;;;;;16.83;11.67;;;-0.30;79.80;;;;;;5021718;28;20239;-88
2023/02/07 08:44:13;;;;;;;14.90;11.63;;;-0.40;78.00;;;;;;5021417;28;20763;-87
2023/02/07 08:46:38;;;;;;;15.20;11.87;;;-0.30;79.00;;;;;;5010304;28;20194;-90
2023/02/07 08:49:04;;;;;;;15.83;12.17;;;-0.30;78.60;;;;;;5013037;28;20209;-89
2023/02/07 08:51:29;;;;;;;14.50;11.40;;;-0.30;78.40;;;;;;5021096;28;20209;-85
2023/02/07 08:53:55;;;;;;;15.30;11.80;;;-0.20;76.50;;;;;;5024567;28;20339;-87
2023/02/07 08:56:21;;;;;;;15.20;12.07;;;-0.10;77.00;;;;;;5013850;28;20192;-88
2023/02/07 08:58:46;;;;;;;11.50;10.27;;;-0.10;75.00;;;;;;5011104;28;20205;-86
2023/02/07 09:01:12;;;;;;;13.70;11.00;;;-0.10;73.70;;;;;;5014649;28;20640;-88
2023/02/07 09:03:37;;;;;;;13.03;11.37;;;-0.10;74.20;;;;;;5015220;28;20190;-91
2023/02/07 09:06:03;;;;;;;14.40;11.33;;;0.10;75.30;;;;;;5020215;28;20440;-87
2023/02/07 09:08:29;;;;;;;12.20;10.97;;;0.20;74.30;;;;;;5022819;28;20304;-89
2023/02/07 09:10:55;;;;;;;14.23;11.13;;;0.30;75.50;;;;;;5018672;28;20342;-87
2023/02/07 09:13:20;;;;;;;14.10;9.67;;;0.40;71.70;;;;;;5017653;28;20656;-86
2023/02/07 09:15:53;;;;;;;11.33;10.23;;;0.40;70.60;;;;;;5015367;28;20565;-89
2023/02/07 09:18:19;;;;;;;12.47;10.10;;;0.30;69.70;;;;;;5017929;28;20185;-86
2023/02/07 09:20:44;;;;;;;13.20;10.37;;;0.40;69.40;;;;;;5022802;28;20682;-88
2023/02/07 09:23:19;;;;;;;14.27;10.17;;;0.50;69.20;;;;;;5017350;28;20208;-87
2023/02/07 09:25:46;;;;;;;13.43;10.87;;;0.50;69.50;;;;;;5014400;28;20184;-88
2023/02/07 09:28:12;;;;;;;10.40;9.30;;;0.60;70.20;;;;;;5010620;28;20213;-88
2023/02/07 09:30:42;;;;;;;12.43;9.97;;;0.60;68.20;;;;;;5024506;28;20279;-87
2023/02/07 09:33:08;;;;;;;11.57;10.17;;;0.60;68.30;;;;;;5011360;28;20923;-87
2023/02/07 09:35:44;;;;;;;11.03;9.93;;;0.80;68.00;;;;;;5018566;28;20197;-90
2023/02/07 09:38:19;;;;;;;12.97;9.73;;;0.80;67.60;;;;;;5014914;28;20181;-89
2023/02/07 09:40:48;;;;;;;13.50;10.03;;;0.90;67.00;;;;;;5011928;28;20212;-87
2023/02/07 09:43:52;;;;;;;11.43;9.87;;;0.90;66.60;;;;;;5006708;28;20271;-86
2023/02/07 09:46:45;;;;;;;13.40;9.40;;;1.00;66.70;;;;;;5016230;28;20193;-87
2023/02/07 09:49:35;;;;;;;9.70;8.33;;;1.00;66.30;;;;;;5012325;28;20201;-86
2023/02/07 09:52:04;;;;;;;10.57;9.10;;;1.10;65.60;;;;;;5012804;28;20264;-86
2023/02/07 09:54:39;;;;;;;12.10;10.67;;;1.10;64.80;;;;;;5010601;28;20194;-89
2023/02/07 09:57:15;;;;;;;11.37;9.87;;;1.20;65.00;;;;;;5015129;28;20291;-88
2023/02/07 09:59:53;;;;;;;12.63;9.60;;;1.30;64.60;;;;;;5020043;28;20270;-89
2023/02/07 10:02:43;;;;;;;17.73;10.47;;;1.30;64.80;;;;;;5008448;28;20204;-87
2023/02/07 10:05:36;;;;;;;12.07;9.80;;;1.40;62.70;;;;;;5018564;28;20224;-87
2023/02/07 10:08:02;;;;;;;11.00;9.37;;;1.50;62.70;;;;;;5014650;28;20257;-86
2023/02/07 10:10:40;;;;;;;15.37;9.93;;;1.50;62.70;;;;;;5012432;28;20289;-86
2023/02/07 10:13:42;;;;;;;11.93;9.93;;;1.50;62.80;;;;;;5013129;28;20182;-89
2023/02/07 10:16:44;;;;;;;10.73;9.30;;;1.80;62.90;;;;;;5011474;28;20185;-89
2023/02/07 10:19:13;;;;;;;9.70;8.70;;;2.10;62.20;;;;;;5006328;28;20196;-89
2023/02/07 10:21:43;;;;;;;10.93;9.57;;;2.20;61.20;;;;;;5019503;28;20220;-90
2023/02/07 10:24:15;;;;;;;10.53;9.43;;;2.30;59.90;;;;;;5014453;28;20288;-87
2023/02/07 10:26:47;;;;;;;12.73;10.20;;;2.40;60.50;;;;;;5005416;28;20383;-89
2023/02/07 10:29:12;;;;;;;10.30;9.20;;;2.60;59.20;;;;;;5005842;28;20229;-88
2023/02/07 10:31:42;;;;;;;10.87;9.67;;;2.70;58.90;;;;;;5009529;28;20559;-89
2023/02/07 10:34:32;;;;;;;10.00;9.00;;;2.80;57.70;;;;;;5009307;28;20251;-87
2023/02/07 10:36:59;;;;;;;12.67;9.83;;;2.70;57.90;;;;;;5017242;28;20248;-88
2023/02/07 10:39:33;;;;;;;10.93;9.77;;;2.70;58.60;;;;;;5016257;28;20195;-87
2023/02/07 10:41:58;;;;;;;10.87;9.70;;;2.80;57.70;;;;;;5014172;28;20205;-88
2023/02/07 10:44:27;;;;;;;10.83;9.27;;;2.90;57.60;;;;;;5014885;28;20614;-91
2023/02/07 10:47:03;;;;;;;11.27;10.17;;;2.90;57.20;;;;;;5012670;28;20296;-88
2023/02/07 10:49:36;;;;;;;10.77;9.67;;;3.10;57.40;;;;;;5012965;28;20671;-86
2023/02/07 10:52:20;;;;;;;11.03;9.83;;;3.20;56.40;;;;;;5010342;28;20220;-87
2023/02/07 10:54:57;;;;;;;10.57;9.20;;;3.20;56.90;;;;;;5011208;28;20186;-87
2023/02/07 10:57:24;;;;;;;11.20;9.37;;;3.30;56.70;;;;;;5013260;28;20225;-88
2023/02/07 10:59:58;;;;;;;12.57;9.47;;;3.50;55.70;;;;;;5014294;28;20224;-89
2023/02/07 11:02:30;;;;;;;11.07;9.50;;;3.60;55.60;;;;;;5008041;28;20255;-89
2023/02/07 11:05:01;;;;;;;10.60;9.50;;;3.80;55.00;;;;;;5009496;28;20189;-89
2023/02/07 11:07:27;;;;;;;11.53;9.30;;;3.90;54.20;;;;;;5010914;28;20614;-88
2023/02/07 11:10:20;;;;;;;13.23;10.00;;;3.80;54.60;;;;;;5009119;28;20393;-89
2023/02/07 11:12:53;;;;;;;9.67;8.73;;;3.90;54.50;;;;;;5018846;28;20741;-85
2023/02/07 11:15:24;;;;;;;13.07;9.67;;;4.00;54.00;;;;;;5016183;28;20200;-89
2023/02/07 11:17:55;;;;;;;12.10;10.10;;;4.10;53.50;;;;;;5008884;28;20212;-88
2023/02/07 11:20:23;;;;;;;11.40;9.77;;;4.20;53.50;;;;;;5015539;28;20204;-86
2023/02/07 11:22:54;;;;;;;10.90;9.00;;;4.30;53.00;;;;;;5014537;28;20208;-89
2023/02/07 11:25:30;;;;;;;11.87;9.70;;;4.40;52.20;;;;;;5015050;28;20235;-87
2023/02/07 11:27:56;;;;;;;11.17;9.73;;;4.50;52.70;;;;;;5012510;28;20259;-89
2023/02/07 11:30:25;;;;;;;11.03;9.73;;;4.60;52.20;;;;;;5015026;28;20270;-87
2023/02/07 11:33:00;;;;;;;10.77;9.60;;;4.70;51.40;;;;;;5010687;28;20582;-87
2023/02/07 11:35:26;;;;;;;12.53;9.90;;;4.80;50.60;;;;;;5016064;28;20189;-90
2023/02/07 11:38:18;;;;;;;11.27;9.53;;;4.60;51.80;;;;;;5015796;28;20658;-89
2023/02/07 11:40:47;;;;;;;12.83;10.37;;;4.40;52.30;;;;;;5014762;28;20475;-89
2023/02/07 11:43:18;;;;;;;13.67;10.40;;;4.50;53.00;;;;;;5019292;28;20740;-87
2023/02/07 11:45:45;;;;;;;10.73;9.67;;;4.90;51.30;;;;;;5013572;28;20189;-87
2023/02/07 11:48:29;;;;;;;10.33;9.33;;;5.20;50.70;;;;;;5011746;28;20672;-88
2023/02/07 11:50:58;;;;;;;10.63;9.53;;;5.20;49.60;;;;;;5018039;28;20220;-87
2023/02/07 11:53:44;;;;;;;15.60;10.33;;;5.10;50.00;;;;;;5022107;28;20243;-87
2023/02/07 11:56:44;;;;;;;12.30;10.50;;;5.30;49.60;;;;;;5016391;28;20276;-87
2023/02/07 11:59:22;;;;;;;13.03;11.03;;;5.30;49.80;;;;;;4976946;28;20189;-87
2023/02/07 12:01:54;;;;;;;12.40;10.17;;;5.20;49.90;;;;;;5017198;28;20217;-87
2023/02/07 12:04:40;;;;;;;10.87;9.77;;;5.50;49.40;;;;;;5017829;28;20189;-89
2023/02/07 12:07:15;;;;;;;11.80;9.87;;;5.80;49.40;;;;;;5015464;28;20359;-88
2023/02/07 12:10:13;;;;;;;11.00;9.90;;;6.00;47.90;;;;;;5015003;28;20701;-89
2023/02/07 12:12:48;;;;;;;11.87;9.60;;;6.00;48.30;;;;;;4999210;28;20228;-87
2023/02/07 12:15:20;;;;;;;12.80;10.40;;;6.10;48.80;;;;;;5020017;28;20222;-89
2023/02/07 12:17:56;;;;;;;11.93;10.13;;;6.00;48.10;;;;;;5011060;28;20177;-88
2023/02/07 12:20:24;;;;;;;11.47;10.30;;;6.00;48.70;;;;;;5013136;28;20357;-88
2023/02/07 12:22:59;;;;;;;12.30;11.10;;;6.20;47.10;;;;;;5016818;28;20682;-89
2023/02/07 12:25:32;;;;;;;12.17;10.50;;;6.30;47.60;;;;;;5017634;28;20227;-90
2023/02/07 12:28:03;;;;;;;14.20;10.30;;;6.20;47.80;;;;;;5031737;28;20253;-92
2023/02/07 12:30:38;;;;;;;11.13;10.00;;;6.20;47.80;;;;;;5032621;28;20244;-91
2023/02/07 12:33:26;;;;;;;12.53;10.17;;;6.10;47.80;;;;;;5032836;28;20178;-88
2023/02/07 12:36:18;;;;;;;11.73;10.57;;;6.40;47.30;;;;;;5017103;28;20181;-88
2023/02/07 12:39:13;;;;;;;13.10;10.63;;;6.50;47.20;;;;;;5014943;28;20476;-88
2023/02/07 12:42:01;;;;;;;12.07;10.97;;;6.90;45.80;;;;;;5019342;28;20314;-88
2023/02/07 12:44:37;;;;;;;12.00;10.50;;;6.90;45.60;;;;;;5019342;28;20232;-88
2023/02/07 12:47:03;;;;;;;11.37;10.13;;;7.00;45.30;;;;;;5017647;28;20219;-89
2023/02/07 12:49:59;;;;;;;13.63;11.77;;;7.10;45.40;;;;;;5015184;28;20299;-87
2023/02/07 12:52:40;;;;;;;11.90;10.73;;;7.40;44.30;;;;;;5016858;28;20204;-89
2023/02/07 12:55:32;;;;;;;12.40;11.17;;;7.20;44.40;;;;;;5018281;28;20178;-87
2023/02/07 12:58:27;;;;;;;13.60;10.37;;;7.50;44.00;;;;;;5013661;28;20280;-88
2023/02/07 13:01:26;;;;;;;13.87;12.57;;;7.20;45.90;;;;;;5014266;28;20212;-88